This is the latest recevied weather packets stored in our database for station/object KY0TEQ-13. If no packets are shown the sender has not sent any weather packets the latest 10 day(s).
| Time | Temp. | Humidity | Pressure | Rain* | Wind** | Luminosity | Snow |
|---|---|---|---|---|---|---|---|
| 1788013827 | 18.89° C | 60% | 1312.2 hPa | 0 mm | - | 107 W/m² | - |
| 1788013521 | 18.89° C | 58% | 1312.1 hPa | 0 mm | - | 133 W/m² | - |
| 1788013220 | 18.33° C | 59% | 1312.2 hPa | 0 mm | - | 70 W/m² | - |
| 1788012915 | 18.89° C | 59% | 1312.1 hPa | 0 mm | - | 62 W/m² | - |
| 1788012614 | 18.89° C | 59% | 1311.9 hPa | 0 mm | - | 62 W/m² | - |
| 1788012310 | 18.89° C | 60% | 1311.8 hPa | 0 mm | - | 95 W/m² | - |
| 1788012005 | 18.33° C | 59% | 1311.7 hPa | 0 mm | - | 95 W/m² | - |
| 1788011703 | 17.78° C | 59% | 1311.6 hPa | 0 mm | - | 88 W/m² | - |
| 1788011398 | 17.22° C | 63% | 1311.4 hPa | 0 mm | - | 85 W/m² | - |
| 1788011098 | 16.67° C | 64% | 1311.6 hPa | 0 mm | - | 64 W/m² | - |
| 1788010793 | 16.67° C | 66% | 1311.7 hPa | 0 mm | - | 60 W/m² | - |
| 1788010491 | 16.67° C | 66% | 1311.4 hPa | 0 mm | - | 57 W/m² | - |
| 1788010186 | 16.11° C | 68% | 1311.6 hPa | 0 mm | - | 52 W/m² | - |
| 1788009881 | 16.11° C | 67% | 1311.6 hPa | 0 mm | - | 43 W/m² | - |
| 1788009578 | 16.11° C | 67% | 1311.8 hPa | 0 mm | - | 32 W/m² | - |
| 1788009273 | 16.11° C | 69% | 1311.9 hPa | 0 mm | - | 22 W/m² | - |
| 1788008968 | 15.56° C | 71% | 1311.8 hPa | 0 mm | - | 15 W/m² | - |
| 1788008665 | 16.11° C | 68% | 1312.1 hPa | 0 mm | - | 15 W/m² | - |
| 1788008362 | 16.11° C | 68% | 1312.1 hPa | 0 mm | - | 14 W/m² | - |
| 1788008060 | 16.67° C | 64% | 1312.3 hPa | 0 mm | - | 7 W/m² | - |
| 1788007759 | 16.67° C | 62% | 1312.4 hPa | 0 mm | - | 4 W/m² | - |
| 1788007454 | 16.67° C | 65% | 1312.2 hPa | 0 mm | - | 2 W/m² | - |
| 1788007153 | 16.67° C | 63% | 1312.2 hPa | 1.78 mm | - | 1 W/m² | - |
| 1788006853 | 16.67° C | 64% | 1312.4 hPa | 1.78 mm | - | 0 W/m² | - |
| 1788006547 | 17.78° C | 59% | 1312.5 hPa | 0 mm | - | 0 W/m² | - |
* Rain latest hour (hover to see other rain measurements)
** Current wind speed in m/s (hover to see current wind gust speed)